Time;durP1;ratioP1;P1;durP2;ratioP2;P2;SDS_P1;SDS_P2;PMS_P1;PMS_P2;Temp;Humidity;BMP_temperature;BMP_pressure;BME280_temperature;BME280_humidity;BME280_pressure;Samples;Min_cycle;Max_cycle;Signal;HPM_P1;HPM_P2
2023/03/08 00:00:19;;;;;;;17.97;15.50;;;;;;;1.29;100.00;99974.88;5254466;28;20472;-71
2023/03/08 00:02:52;;;;;;;17.53;14.53;;;;;;;1.24;100.00;99969.88;5237206;28;20033;-72
2023/03/08 00:05:24;;;;;;;19.23;15.03;;;;;;;1.33;100.00;99979.03;5254798;28;20033;-71
2023/03/08 00:07:55;;;;;;;21.23;15.53;;;;;;;1.31;100.00;99975.66;5255877;28;20032;-71
2023/03/08 00:10:26;;;;;;;18.53;15.40;;;;;;;1.35;100.00;99979.81;5255724;28;20090;-72
2023/03/08 00:12:58;;;;;;;21.53;16.27;;;;;;;1.29;100.00;99972.31;5255389;28;20029;-72
2023/03/08 00:15:29;;;;;;;19.50;15.93;;;;;;;1.33;100.00;99971.28;5254809;28;20087;-71
2023/03/08 00:18:00;;;;;;;20.03;16.57;;;;;;;1.36;100.00;99973.78;5255854;28;20468;-72
2023/03/08 00:20:32;;;;;;;21.13;17.07;;;;;;;1.36;100.00;99971.19;5255986;28;20055;-71
2023/03/08 00:23:03;;;;;;;21.53;16.53;;;;;;;1.30;100.00;99972.25;5255667;28;20032;-72
2023/03/08 00:25:35;;;;;;;19.00;15.83;;;;;;;1.29;100.00;99974.88;5255332;28;20158;-71
2023/03/08 00:28:06;;;;;;;20.80;17.07;;;;;;;1.29;100.00;99982.63;5256139;28;20487;-71
2023/03/08 00:30:37;;;;;;;20.43;17.03;;;;;;;1.31;100.00;99978.22;5255275;28;20043;-71
2023/03/08 00:33:08;;;;;;;20.80;17.33;;;;;;;1.36;100.00;99976.34;5255857;28;20082;-71
2023/03/08 00:35:40;;;;;;;21.03;17.23;;;;;;;1.33;100.00;99976.44;5255936;28;20075;-71
2023/03/08 00:38:11;;;;;;;22.17;17.83;;;;;;;1.33;100.00;99969.56;5255347;28;20031;-71
2023/03/08 00:40:42;;;;;;;23.47;17.70;;;;;;;1.38;100.00;99971.13;5254676;28;20064;-71
2023/03/08 00:43:13;;;;;;;24.73;17.87;;;;;;;1.45;100.00;99981.16;5254850;28;20029;-71
2023/03/08 00:45:45;;;;;;;21.47;16.23;;;;;;;1.36;100.00;99971.19;5236558;28;20047;-71
2023/03/08 00:48:16;;;;;;;23.60;17.97;;;;;;;1.43;100.00;99977.78;5254767;28;20029;-71
2023/03/08 00:50:48;;;;;;;23.20;18.23;;;;;;;1.32;100.00;99962.72;5255154;28;20028;-71
2023/03/08 00:53:20;;;;;;;22.30;17.87;;;;;;;1.43;100.00;99966.66;5255152;28;20029;-71
2023/03/08 00:55:56;;;;;;;24.90;19.90;;;;;;;1.37;100.00;99957.38;5254783;28;20028;-71
2023/03/08 00:58:29;;;;;;;28.23;19.57;;;;;;;1.41;100.00;99969.28;5237744;28;20028;-71
2023/03/08 01:01:00;;;;;;;23.60;18.50;;;;;;;1.41;100.00;99969.28;5235138;28;20029;-71
2023/03/08 01:03:32;;;;;;;26.23;20.40;;;;;;;1.41;100.00;99966.72;5255222;28;20044;-71
2023/03/08 01:06:07;;;;;;;26.93;19.57;;;;;;;1.44;100.00;99964.03;5236918;28;20033;-71
2023/03/08 01:08:41;;;;;;;24.03;19.73;;;;;;;1.44;100.00;99958.84;5253926;28;20021;-70
2023/03/08 01:11:24;;;;;;;30.00;21.60;;;;;;;1.50;100.00;99952.59;5233854;28;20419;-71
2023/03/08 01:13:56;;;;;;;26.83;21.87;;;;;;;1.47;100.00;99946.75;5216967;28;20547;-71
2023/03/08 01:16:29;;;;;;;27.93;21.63;;;;;;;1.49;100.00;99947.50;5215715;28;20057;-71
2023/03/08 01:19:01;;;;;;;31.10;23.07;;;;;;;1.49;100.00;99934.59;5233724;28;20028;-71
2023/03/08 01:21:32;;;;;;;30.60;23.63;;;;;;;1.44;100.00;99920.16;5241648;28;20033;-72
2023/03/08 01:24:04;;;;;;;39.43;26.17;;;;;;;1.44;100.00;99927.03;5254819;28;20123;-71
2023/03/08 01:26:36;;;;;;;33.60;25.90;;;;;;;1.50;100.00;99923.41;5254418;28;20155;-71
2023/03/08 01:29:07;;;;;;;35.47;26.20;;;;;;;1.50;100.00;99918.25;5253906;28;20043;-71
2023/03/08 01:31:38;;;;;;;36.10;26.70;;;;;;;1.47;100.00;99908.84;5254926;28;20035;-71
2023/03/08 01:34:09;;;;;;;31.53;26.17;;;;;;;1.51;100.00;99907.00;5236722;28;20043;-71
2023/03/08 01:36:41;;;;;;;37.20;27.67;;;;;;;1.56;100.00;99905.09;5254644;28;20029;-70
2023/03/08 01:39:12;;;;;;;43.90;28.17;;;;;;;1.54;100.00;99891.41;5253864;28;20132;-71
2023/03/08 01:41:43;;;;;;;33.83;26.70;;;;;;;1.57;100.00;99906.78;5241889;28;20047;-71
2023/03/08 01:44:18;;;;;;;37.03;28.03;;;;;;;1.54;100.00;99896.56;5233394;28;20060;-71
2023/03/08 01:46:50;;;;;;;35.58;28.20;;;;;;;1.52;100.00;99882.91;5244971;28;20041;-71
2023/03/08 01:49:33;;;;;;;37.30;27.87;;;;;;;1.59;100.00;99894.66;5252964;28;20017;-69
2023/03/08 01:52:11;;;;;;;35.63;28.07;;;;;;;1.56;100.00;99879.28;5253566;28;20036;-69
2023/03/08 01:54:45;;;;;;;38.60;28.57;;;;;;;1.57;100.00;99881.00;5254723;28;20110;-70
2023/03/08 01:57:25;;;;;;;38.60;28.93;;;;;;;1.55;100.00;99883.59;5255122;28;20037;-69
2023/03/08 02:00:03;;;;;;;38.63;30.23;;;;;;;1.58;100.00;99877.50;5252313;28;20029;-70
2023/03/08 02:02:41;;;;;;;45.47;30.20;;;;;;;1.58;100.00;99877.50;5255126;28;20167;-71
2023/03/08 02:05:13;;;;;;;36.83;29.43;;;;;;;1.62;100.00;99873.91;5252415;28;20038;-71
2023/03/08 02:07:45;;;;;;;41.53;30.07;;;;;;;1.61;100.00;99877.38;5254040;28;20033;-71
2023/03/08 02:12:54;;;;;;;42.83;30.70;;;;;;;1.52;100.00;99849.34;5183817;28;20058;-76
2023/03/08 02:15:25;;;;;;;40.57;29.97;;;;;;;1.63;100.00;99854.06;5194932;28;20112;-76
2023/03/08 02:17:57;;;;;;;37.47;29.80;;;;;;;1.51;100.00;99837.31;5211560;28;20038;-75
2023/03/08 02:20:39;;;;;;;38.23;30.20;;;;;;;1.55;100.00;99846.66;5196182;28;20057;-75
2023/03/08 02:23:22;;;;;;;38.93;29.63;;;;;;;1.56;100.00;99840.56;5196319;28;20050;-74
2023/03/08 02:26:02;;;;;;;38.67;29.07;;;;;;;1.58;100.00;99838.78;5196533;28;20630;-74
2023/03/08 02:28:34;;;;;;;39.83;30.73;;;;;;;1.45;100.00;99810.84;5196598;28;20036;-75
2023/03/08 02:31:05;;;;;;;39.30;29.53;;;;;;;1.51;100.00;99819.25;5195213;28;20467;-75
2023/03/08 02:33:37;;;;;;;37.77;29.73;;;;;;;1.64;100.00;99835.13;5197080;28;20026;-75
2023/03/08 02:36:09;;;;;;;38.07;30.27;;;;;;;1.55;100.00;99828.59;5196535;28;20026;-75
2023/03/08 02:38:40;;;;;;;39.00;29.17;;;;;;;1.62;100.00;99827.44;5185139;28;20443;-75
2023/03/08 02:41:11;;;;;;;36.57;29.67;;;;;;;1.65;100.00;99822.16;5176269;28;20037;-75
2023/03/08 02:43:43;;;;;;;40.67;29.67;;;;;;;1.67;100.00;99827.25;5184376;28;20347;-75
2023/03/08 02:46:14;;;;;;;40.00;30.53;;;;;;;1.63;100.00;99818.78;5195530;28;20113;-75
2023/03/08 02:48:45;;;;;;;39.13;30.20;;;;;;;1.63;100.00;99816.22;5195050;28;20030;-75
2023/03/08 02:51:17;;;;;;;33.63;27.83;;;;;;;1.42;100.00;99816.16;5195569;28;20034;-75
2023/03/08 02:53:48;;;;;;;34.33;27.30;;;;;;;1.50;100.00;99817.59;5196786;28;20423;-75
2023/03/08 02:56:20;;;;;;;36.07;27.33;;;;;;;1.47;100.00;99805.63;5195888;28;20396;-74
2023/03/08 02:58:51;;;;;;;33.10;27.40;;;;;;;1.55;100.00;99803.59;5195013;28;20030;-74
2023/03/08 03:01:23;;;;;;;38.23;28.53;;;;;;;1.56;100.00;99799.28;5195804;28;20041;-75
2023/03/08 03:03:54;;;;;;;40.30;28.60;;;;;;;1.68;100.00;99814.28;5195754;28;20393;-74
2023/03/08 03:06:25;;;;;;;35.17;28.20;;;;;;;1.64;100.00;99799.81;5195747;28;20166;-75
2023/03/08 03:08:57;;;;;;;34.07;27.97;;;;;;;1.25;100.00;99792.72;5195667;28;20030;-75
2023/03/08 03:11:28;;;;;;;33.30;27.40;;;;;;;1.19;100.00;99781.75;5195896;28;20131;-75
2023/03/08 03:14:00;;;;;;;36.23;28.30;;;;;;;1.35;100.00;99776.00;5194998;28;20030;-75
2023/03/08 03:16:32;;;;;;;36.63;27.97;;;;;;;1.39;100.00;99792.19;5195719;28;20034;-75
2023/03/08 03:19:03;;;;;;;35.93;28.43;;;;;;;1.41;100.00;99775.78;5195720;28;20030;-75
2023/03/08 03:21:37;;;;;;;35.13;27.90;;;;;;;1.51;100.00;99775.41;5195342;28;20036;-75
2023/03/08 03:24:08;;;;;;;34.63;28.50;;;;;;;1.51;100.00;99770.22;5176243;28;20039;-75
2023/03/08 03:26:39;;;;;;;35.23;28.90;;;;;;;1.40;100.00;99776.66;5157880;28;20050;-75
2023/03/08 03:29:10;;;;;;;35.33;28.03;;;;;;;1.24;100.00;99766.06;5174222;28;20030;-75
2023/03/08 03:31:42;;;;;;;38.20;29.90;;;;;;;1.19;100.00;99752.50;5175783;28;20113;-75
2023/03/08 03:34:14;;;;;;;39.77;30.37;;;;;;;1.07;100.00;99754.69;5174527;28;20035;-75
2023/03/08 03:36:45;;;;;;;38.73;31.30;;;;;;;0.97;100.00;99743.03;5175486;28;20027;-75
2023/03/08 03:39:16;;;;;;;42.10;31.93;;;;;;;0.84;100.00;99729.75;5173674;28;20069;-75
2023/03/08 03:41:48;;;;;;;40.10;32.07;;;;;;;0.77;100.00;99726.56;5157980;28;20031;-75
2023/03/08 03:44:19;;;;;;;42.33;31.53;;;;;;;0.75;100.00;99730.91;5156668;28;20117;-75
2023/03/08 03:46:50;;;;;;;42.07;32.97;;;;;;;0.80;100.00;99735.94;5174705;28;20122;-75
2023/03/08 03:49:22;;;;;;;41.57;31.90;;;;;;;0.76;100.00;99729.19;5174483;28;20383;-75
2023/03/08 03:51:53;;;;;;;41.87;32.20;;;;;;;0.93;100.00;99729.41;5175269;28;20034;-74
2023/03/08 03:54:25;;;;;;;41.93;30.60;;;;;;;0.94;100.00;99738.00;5174356;28;20038;-75
2023/03/08 03:56:57;;;;;;;40.10;30.97;;;;;;;0.87;100.00;99727.06;5174850;28;20463;-75
2023/03/08 03:59:29;;;;;;;39.27;30.03;;;;;;;1.03;100.00;99718.75;5182409;28;20022;-75
2023/03/08 04:02:00;;;;;;;36.07;28.80;;;;;;;0.78;100.00;99714.50;5194759;28;20045;-75
2023/03/08 04:04:31;;;;;;;37.57;28.77;;;;;;;0.55;100.00;99708.47;5194996;28;20109;-76
2023/03/08 04:07:02;;;;;;;38.97;29.23;;;;;;;0.59;100.00;99707.47;5194602;28;20130;-75
2023/03/08 04:09:34;;;;;;;35.30;28.03;;;;;;;0.68;100.00;99701.97;5195244;28;20029;-75
2023/03/08 04:12:06;;;;;;;33.67;26.57;;;;;;;0.76;100.00;99690.53;5193870;28;20116;-75
2023/03/08 04:14:39;;;;;;;32.80;25.73;;;;;;;1.07;100.00;99707.41;5194191;28;20030;-76
2023/03/08 04:17:10;;;;;;;31.53;25.63;;;;;;;1.06;100.00;99704.00;5194635;28;20033;-75
2023/03/08 04:19:41;;;;;;;30.10;24.07;;;;;;;0.92;100.00;99686.50;5194120;28;20038;-75
2023/03/08 04:22:12;;;;;;;28.07;22.77;;;;;;;1.00;100.00;99690.47;5194472;28;20627;-75
2023/03/08 04:24:44;;;;;;;30.07;24.63;;;;;;;0.87;100.00;99665.19;5189206;28;20026;-75
2023/03/08 04:27:15;;;;;;;26.40;22.27;;;;;;;0.96;100.00;99669.16;5174278;28;20093;-75
2023/03/08 04:29:47;;;;;;;27.47;21.97;;;;;;;1.07;100.00;99673.88;5173939;28;20113;-75
2023/03/08 04:32:18;;;;;;;27.10;21.53;;;;;;;0.74;100.00;99633.03;5173706;28;20050;-75
2023/03/08 04:34:49;;;;;;;26.77;21.60;;;;;;;1.12;100.00;99661.66;5186760;28;20442;-74
2023/03/08 04:37:21;;;;;;;24.80;19.97;;;;;;;1.14;100.00;99665.00;5193602;28;20484;-75
2023/03/08 04:39:52;;;;;;;25.90;21.50;;;;;;;1.10;100.00;99655.69;5189021;28;20030;-75
2023/03/08 04:42:23;;;;;;;26.83;21.00;;;;;;;0.72;100.00;99641.69;5180495;28;20026;-75
2023/03/08 04:44:55;;;;;;;24.83;20.63;;;;;;;0.70;100.00;99647.78;5192913;28;20529;-75
2023/03/08 04:47:26;;;;;;;26.63;21.80;;;;;;;0.55;100.00;99639.75;5193666;28;21048;-75
2023/03/08 04:49:57;;;;;;;23.07;20.33;;;;;;;0.71;100.00;99642.59;5193528;28;20106;-75
2023/03/08 04:52:28;;;;;;;22.50;18.67;;;;;;;0.64;100.00;99632.56;5192867;28;20030;-76
2023/03/08 04:55:00;;;;;;;25.73;20.37;;;;;;;0.86;100.00;99636.88;5193273;28;20105;-75
2023/03/08 04:57:31;;;;;;;23.60;18.70;;;;;;;0.69;100.00;99626.34;5193973;28;20062;-76
2023/03/08 05:00:04;;;;;;;24.80;18.07;;;;;;;0.72;100.00;99630.53;5192318;28;20368;-76
2023/03/08 05:02:35;;;;;;;21.87;18.33;;;;;;;0.87;100.00;99616.22;5201682;28;20044;-76
2023/03/08 05:05:07;;;;;;;23.40;18.87;;;;;;;0.75;100.00;99593.50;5194003;28;20113;-75
2023/03/08 05:07:38;;;;;;;21.80;17.57;;;;;;;0.66;100.00;99605.84;5180651;28;20037;-76
2023/03/08 05:10:10;;;;;;;23.87;19.37;;;;;;;0.71;100.00;99609.09;5193636;28;20073;-76
2023/03/08 05:12:41;;;;;;;23.70;18.30;;;;;;;0.50;100.00;99599.59;5204504;28;20069;-76
2023/03/08 05:15:13;;;;;;;24.53;17.67;;;;;;;0.52;100.00;99590.91;5193808;28;20454;-76
2023/03/08 05:17:44;;;;;;;24.40;19.50;;;;;;;0.38;100.00;99594.00;5214047;28;20113;-76
2023/03/08 05:20:16;;;;;;;23.77;18.70;;;;;;;0.26;100.00;99592.75;5199368;28;20042;-74
2023/03/08 05:22:49;;;;;;;23.43;19.97;;;;;;;0.31;100.00;99589.97;5207127;28;20038;-75
2023/03/08 05:25:20;;;;;;;22.67;17.53;;;;;;;0.10;100.00;99549.53;5192795;28;20120;-75
2023/03/08 05:27:52;;;;;;;22.90;18.30;;;;;;;0.34;100.00;99564.09;5193689;28;20734;-75
2023/03/08 05:30:24;;;;;;;24.10;19.43;;;;;;;0.26;100.00;99571.28;5173907;28;20034;-75
2023/03/08 05:32:55;;;;;;;24.10;18.60;;;;;;;0.16;100.00;99514.97;5193341;28;20045;-75
2023/03/08 05:35:27;;;;;;;24.80;18.73;;;;;;;0.56;100.00;99553.00;5193390;28;20121;-76
2023/03/08 05:37:58;;;;;;;24.87;17.40;;;;;;;0.66;100.00;99559.47;5192630;28;20034;-75
2023/03/08 05:40:30;;;;;;;22.53;18.23;;;;;;;0.54;100.00;99554.78;5193354;28;20030;-74
2023/03/08 05:43:01;;;;;;;20.70;16.27;;;;;;;0.26;100.00;99542.97;5192709;28;20022;-74
2023/03/08 05:45:32;;;;;;;20.43;16.47;;;;;;;0.19;100.00;99540.59;5192044;28;20073;-75
2023/03/08 05:48:04;;;;;;;20.17;16.13;;;;;;;0.24;100.00;99543.03;5196173;28;20041;-75
2023/03/08 05:50:38;;;;;;;18.53;13.00;;;;;;;-0.11;100.00;99497.09;5197174;28;20066;-75
2023/03/08 05:53:10;;;;;;;14.90;12.13;;;;;;;0.06;100.00;99524.78;5196842;28;20744;-75
2023/03/08 05:55:41;;;;;;;13.60;10.90;;;;;;;-0.20;100.00;99505.16;5196664;28;20034;-76
2023/03/08 05:58:13;;;;;;;14.93;11.03;;;;;;;-0.12;100.00;99521.16;5197388;28;20109;-74
2023/03/08 06:00:44;;;;;;;15.10;12.43;;;;;;;-0.25;100.00;99507.91;5186938;28;20041;-75
2023/03/08 06:03:16;;;;;;;14.20;10.93;;;;;;;-0.28;100.00;99502.88;5177146;28;20057;-76
2023/03/08 06:05:47;;;;;;;15.93;11.23;;;;;;;-0.49;100.00;99480.41;5177179;28;20031;-76
2023/03/08 06:08:18;;;;;;;17.43;12.47;;;;;;;-0.41;100.00;99499.88;5176707;28;20085;-76
2023/03/08 06:10:49;;;;;;;19.10;12.73;;;;;;;-0.50;100.00;99496.75;5177003;28;20078;-76
2023/03/08 06:13:21;;;;;;;16.13;14.07;;;;;;;-0.62;100.00;99492.91;5188783;28;20122;-76
2023/03/08 06:15:55;;;;;;;13.63;10.73;;;;;;;-0.55;100.00;99498.66;5197189;28;20014;-76
2023/03/08 06:18:27;;;;;;;19.33;11.93;;;;;;;-0.64;100.00;99504.13;5211994;28;20030;-75
2023/03/08 06:21:03;;;;;;;16.17;10.13;;;;;;;-0.63;100.00;99501.47;5197452;28;20375;-76
2023/03/08 06:23:35;;;;;;;17.50;10.93;;;;;;;-0.77;100.00;99478.81;5196223;28;20437;-76
2023/03/08 06:26:08;;;;;;;14.20;9.63;;;;;;;-0.78;100.00;99492.59;5196258;28;20066;-75
2023/03/08 06:28:40;;;;;;;14.57;10.00;;;;;;;-0.78;100.00;99491.72;5194760;28;20121;-75
2023/03/08 06:31:15;;;;;;;14.77;10.20;;;;;;;-0.65;100.00;99498.16;5205268;28;20032;-76
2023/03/08 06:33:46;;;;;;;16.27;10.80;;;;;;;-0.61;100.00;99484.28;5197951;28;20029;-76
2023/03/08 06:36:19;;;;;;;14.37;9.73;;;;;;;-0.79;100.00;99480.63;5196604;28;20037;-76
2023/03/08 06:38:51;;;;;;;14.77;9.27;;;;;;;-0.62;100.00;99476.63;5195077;28;20038;-76
2023/03/08 06:41:22;;;;;;;13.87;8.10;;;;;;;-0.80;100.00;99467.84;5204092;28;20052;-76
2023/03/08 06:43:53;;;;;;;12.50;9.20;;;;;;;-0.69;100.00;99476.00;5194253;28;20034;-76
2023/03/08 06:46:25;;;;;;;10.53;7.87;;;;;;;-0.86;100.00;99458.59;5196290;28;20105;-76
2023/03/08 06:48:59;;;;;;;10.53;6.60;;;;;;;-0.72;100.00;99488.97;5196561;28;20030;-76
2023/03/08 06:51:30;;;;;;;10.90;6.47;;;;;;;-1.05;100.00;99448.94;5207692;28;20034;-76
2023/03/08 06:54:01;;;;;;;10.63;5.37;;;;;;;-0.80;100.00;99489.22;5210083;28;20034;-76
2023/03/08 06:56:33;;;;;;;12.83;5.90;;;;;;;-0.94;100.00;99481.16;5196085;28;20116;-76
2023/03/08 06:59:04;;;;;;;8.60;5.60;;;;;;;-0.90;100.00;99488.69;5194482;28;20473;-76
2023/03/08 07:01:36;;;;;;;7.63;6.60;;;;;;;-0.93;100.00;99477.69;5203560;28;20092;-76
2023/03/08 07:04:07;;;;;;;8.63;6.20;;;;;;;-1.02;100.00;99469.41;5195039;28;20026;-76
2023/03/08 07:06:38;;;;;;;12.30;6.77;;;;;;;-0.94;100.00;99483.72;5214321;28;20394;-76
2023/03/08 07:09:12;;;;;;;11.03;6.00;;;;;;;-0.89;100.00;99482.66;5200740;28;20030;-76
2023/03/08 07:11:43;;;;;;;8.60;5.37;;;;;;;-0.87;100.00;99446.63;5202886;28;20050;-76
2023/03/08 07:14:15;;;;;;;8.97;5.90;;;;;;;-0.83;100.00;99473.06;5186268;28;20477;-76
2023/03/08 07:16:47;;;;;;;11.90;6.13;;;;;;;-1.02;100.00;99443.69;5197081;28;20125;-76
2023/03/08 07:19:18;;;;;;;12.27;5.20;;;;;;;-1.25;100.00;99422.19;5194737;28;20398;-75
2023/03/08 07:21:50;;;;;;;16.47;4.87;;;;;;;-0.94;100.00;99465.75;5196613;28;20030;-76
2023/03/08 07:24:22;;;;;;;9.57;5.00;;;;;;;-0.93;100.00;99459.69;5201558;28;20022;-75
2023/03/08 07:26:54;;;;;;;8.10;4.90;;;;;;;-0.96;100.00;99452.09;5211898;28;20466;-75
2023/03/08 07:29:25;;;;;;;8.97;5.53;;;;;;;-0.97;100.00;99438.41;5211626;28;20037;-75
2023/03/08 07:31:56;;;;;;;9.77;4.50;;;;;;;-0.88;100.00;99452.66;5199886;28;20117;-76
2023/03/08 07:34:27;;;;;;;9.87;4.80;;;;;;;-0.81;100.00;99446.41;5193356;28;20026;-76
2023/03/08 07:36:59;;;;;;;7.77;4.10;;;;;;;-0.92;100.00;99430.50;5191187;28;20349;-75
2023/03/08 07:39:30;;;;;;;7.60;4.50;;;;;;;-1.05;100.00;99407.84;5175473;28;20478;-76
2023/03/08 07:42:01;;;;;;;8.20;5.03;;;;;;;-0.83;100.00;99430.19;5192792;28;20069;-76
2023/03/08 07:44:33;;;;;;;8.33;5.73;;;;;;;-0.88;100.00;99425.22;5192104;28;20382;-76
2023/03/08 07:47:06;;;;;;;10.73;6.40;;;;;;;-0.95;100.00;99412.63;5192183;28;20298;-76
2023/03/08 07:49:38;;;;;;;9.85;6.65;;;;;;;-1.02;100.00;99406.88;5192370;28;20070;-75
2023/03/08 07:52:09;;;;;;;11.10;7.03;;;;;;;-0.89;100.00;99415.81;5192573;28;20061;-75
2023/03/08 07:54:42;;;;;;;10.80;7.47;;;;;;;-0.88;100.00;99422.66;5187640;28;20153;-75
2023/03/08 07:57:14;;;;;;;11.03;8.00;;;;;;;-1.02;100.00;99394.88;5168549;28;20041;-76
2023/03/08 07:59:45;;;;;;;12.53;8.00;;;;;;;-1.12;100.00;99371.19;5193841;28;20030;-75
2023/03/08 08:02:16;;;;;;;14.43;9.03;;;;;;;-0.87;100.00;99418.34;5192250;28;20113;-76
2023/03/08 08:04:49;;;;;;;13.53;9.33;;;;;;;-1.02;100.00;99394.03;5193685;28;20086;-75
2023/03/08 08:07:20;;;;;;;12.43;8.43;;;;;;;-0.94;100.00;99398.91;5175870;28;20080;-75
2023/03/08 08:09:52;;;;;;;14.97;10.60;;;;;;;-0.87;100.00;99410.63;5192614;28;20030;-75
2023/03/08 08:12:24;;;;;;;14.33;10.43;;;;;;;-1.06;100.00;99382.16;5193523;28;20038;-75
2023/03/08 08:14:56;;;;;;;13.47;9.87;;;;;;;-0.97;100.00;99397.28;5192188;28;20030;-75
2023/03/08 08:17:28;;;;;;;13.97;10.43;;;;;;;-0.95;100.00;99385.22;5193606;28;20034;-75
2023/03/08 08:20:00;;;;;;;13.50;10.07;;;;;;;-0.82;100.00;99397.63;5193862;28;20102;-76
2023/03/08 08:22:34;;;;;;;14.03;10.50;;;;;;;-0.86;100.00;99381.47;5193589;28;20113;-76
2023/03/08 08:25:06;;;;;;;14.32;10.55;;;;;;;-0.76;100.00;99385.38;5193057;28;20441;-75
2023/03/08 08:27:37;;;;;;;17.57;11.40;;;;;;;-0.82;100.00;99372.75;5192784;28;20118;-74
2023/03/08 08:30:11;;;;;;;17.63;11.67;;;;;;;-0.79;100.00;99372.66;5191176;28;20026;-74
2023/03/08 08:32:43;;;;;;;16.17;11.40;;;;;;;-0.82;100.00;99377.88;5186210;28;20045;-74
2023/03/08 08:35:14;;;;;;;15.43;11.80;;;;;;;-0.88;100.00;99362.69;5197076;28;20025;-74
2023/03/08 08:37:45;;;;;;;12.23;9.97;;;;;;;-0.86;100.00;99366.03;5193115;28;20497;-74
2023/03/08 08:40:17;;;;;;;13.87;9.87;;;;;;;-0.90;100.00;99357.59;5188385;28;20340;-74
2023/03/08 08:42:50;;;;;;;11.23;9.73;;;;;;;-0.99;100.00;99350.22;5181301;28;20045;-74
2023/03/08 08:45:22;;;;;;;11.70;9.37;;;;;;;-1.23;100.00;99309.94;5172205;28;21055;-74
2023/03/08 08:47:55;;;;;;;10.80;8.37;;;;;;;-1.08;100.00;99327.44;5162786;28;20332;-73
2023/03/08 08:50:26;;;;;;;11.37;8.67;;;;;;;-0.98;100.00;99365.59;5182538;28;20057;-73
2023/03/08 08:52:57;;;;;;;12.07;9.63;;;;;;;-0.86;100.00;99366.91;5179906;28;20133;-74
2023/03/08 08:55:29;;;;;;;13.10;9.77;;;;;;;-1.20;100.00;99319.25;5166405;28;20049;-74
2023/03/08 08:58:01;;;;;;;11.77;9.63;;;;;;;-1.05;100.00;99341.03;5182793;28;20720;-74
2023/03/08 09:00:34;;;;;;;12.00;9.80;;;;;;;-1.12;100.00;99342.13;5188100;28;20038;-74
2023/03/08 09:03:06;;;;;;;12.43;10.97;;;;;;;-1.05;100.00;99359.00;5190476;28;20049;-74
2023/03/08 09:05:54;;;;;;;14.20;10.83;;;;;;;-1.03;100.00;99346.91;5188658;28;20137;-74
2023/03/08 09:08:25;;;;;;;13.53;10.57;;;;;;;-1.23;100.00;99335.63;5183544;28;20084;-74
2023/03/08 09:11:02;;;;;;;13.80;11.03;;;;;;;-1.24;100.00;99331.38;5174056;28;20121;-75
2023/03/08 09:13:39;;;;;;;14.50;11.43;;;;;;;-1.14;100.00;99346.47;5175842;28;20030;-74
2023/03/08 09:16:47;;;;;;;13.63;11.83;;;;;;;-1.46;100.00;99270.50;5175241;28;20382;-75
2023/03/08 09:19:36;;;;;;;14.40;11.70;;;;;;;-1.30;100.00;99280.22;5109082;28;20141;-75
2023/03/08 09:22:14;;;;;;;14.97;13.23;;;;;;;-1.37;100.00;99268.50;5190282;28;20030;-74
2023/03/08 09:24:59;;;;;;;15.83;12.80;;;;;;;-1.28;100.00;99270.75;5172914;28;20369;-74
2023/03/08 09:27:30;;;;;;;16.48;14.32;;;;;;;-1.08;100.00;99294.03;5189447;28;20022;-74
2023/03/08 09:30:02;;;;;;;17.23;14.07;;;;;;;-0.93;100.00;99287.47;5190094;28;20041;-73
2023/03/08 09:32:35;;;;;;;18.07;12.77;;;;;;;-0.84;100.00;99305.13;5189975;28;20482;-74
2023/03/08 09:35:06;;;;;;;14.57;12.40;;;;;;;-0.83;100.00;99304.22;5190135;28;20500;-74
2023/03/08 09:37:37;;;;;;;15.23;11.20;;;;;;;-0.83;100.00;99308.53;5189529;28;20366;-74
2023/03/08 09:40:22;;;;;;;14.00;10.90;;;;;;;-1.12;100.00;99258.16;5190335;28;20513;-74
2023/03/08 09:43:03;;;;;;;13.77;10.65;;;;;;;-0.83;100.00;99296.53;5188861;28;20504;-74
2023/03/08 09:45:35;;;;;;;14.10;10.07;;;;;;;-0.86;100.00;99294.91;5189951;28;20482;-74
2023/03/08 09:48:14;;;;;;;13.77;11.13;;;;;;;-1.00;100.00;99258.59;5189738;28;20022;-74
2023/03/08 09:50:50;;;;;;;15.83;11.53;;;;;;;-0.89;100.00;99278.78;5189291;28;20045;-74
2023/03/08 09:53:31;;;;;;;16.17;12.20;;;;;;;-1.23;100.00;99206.34;5171874;28;20026;-74
2023/03/08 09:56:09;;;;;;;12.90;11.03;;;;;;;-0.96;100.00;99249.88;5189541;28;20029;-74
2023/03/08 09:58:46;;;;;;;17.20;12.63;;;;;;;-0.78;100.00;99279.19;5189170;28;20038;-74
2023/03/08 10:01:35;;;;;;;17.00;12.53;;;;;;;-0.92;100.00;99236.00;5189565;28;20038;-75
2023/03/08 10:04:32;;;;;;;14.07;11.67;;;;;;;-0.57;100.00;99273.28;5190024;28;20032;-74
2023/03/08 10:11:27;;;;;;;20.33;15.37;;;;;;;-0.61;100.00;99251.97;5125644;29;20067;-74
2023/03/08 10:35:44;;;;;;;27.37;21.07;;;;;;;-0.34;100.00;99263.81;5275309;28;20048;-74
2023/03/08 10:38:58;;;;;;;25.33;21.13;;;;;;;-0.74;100.00;99193.34;5265691;28;20059;-74
2023/03/08 10:48:47;;;;;;;24.83;20.87;;;;;;;-0.55;100.00;99189.19;5221304;28;20032;-74
2023/03/08 10:51:27;;;;;;;24.33;20.27;;;;;;;-0.32;100.00;99226.84;5288162;28;20036;-74
2023/03/08 10:54:28;;;;;;;25.20;20.80;;;;;;;-0.67;100.00;99191.38;5275012;28;20024;-74
2023/03/08 10:57:10;;;;;;;21.80;18.83;;;;;;;-0.61;100.00;99187.69;5243262;28;20043;-74
2023/03/08 10:59:48;;;;;;;22.60;20.00;;;;;;;-0.65;100.00;99186.16;5256639;28;20024;-75
2023/03/08 11:02:21;;;;;;;26.83;20.83;;;;;;;-0.71;100.00;99178.66;5274495;28;20025;-74
2023/03/08 11:04:58;;;;;;;23.30;18.10;;;;;;;-0.28;100.00;99272.13;5275220;28;20054;-74
2023/03/08 11:07:31;;;;;;;19.97;17.47;;;;;;;-0.33;100.00;99253.47;5275162;28;20025;-74
2023/03/08 11:10:12;;;;;;;21.17;17.57;;;;;;;-0.35;100.00;99245.00;5274973;28;20452;-74
2023/03/08 11:12:44;;;;;;;21.70;18.17;;;;;;;-0.50;100.00;99229.25;5274680;28;20052;-74
2023/03/08 11:15:17;;;;;;;20.17;18.07;;;;;;;-0.20;100.00;99258.09;5274877;28;20013;-73
2023/03/08 11:17:58;;;;;;;21.92;19.35;;;;;;;-0.15;100.00;99256.19;5274922;28;20020;-73
2023/03/08 11:20:41;;;;;;;23.27;18.10;;;;;;;-0.19;100.00;99249.50;5257026;28;20036;-73
2023/03/08 11:23:23;;;;;;;20.47;18.27;;;;;;;-0.20;100.00;99233.22;5274731;28;20125;-73
2023/03/08 11:26:04;;;;;;;18.43;16.33;;;;;;;-0.37;100.00;99213.34;5274315;28;20035;-73
2023/03/08 11:29:06;;;;;;;19.70;16.90;;;;;;;-0.16;100.00;99236.50;5273913;28;20423;-73
2023/03/08 11:32:03;;;;;;;18.73;16.63;;;;;;;-0.11;100.00;99247.44;5274835;28;20124;-73
2023/03/08 11:35:03;;;;;;;20.37;16.90;;;;;;;-0.03;100.00;99247.13;5274654;28;20032;-74
2023/03/08 11:37:55;;;;;;;17.87;15.07;;;;;;;-0.06;100.00;99244.69;5274508;28;20016;-73
2023/03/08 11:40:47;;;;;;;18.10;16.17;;;;;;;-0.06;100.00;99231.81;5274012;28;20463;-73
2023/03/08 11:43:48;;;;;;;17.87;15.57;;;;;;;-0.05;100.00;99211.16;5273186;28;20423;-74
2023/03/08 11:46:44;;;;;;;18.77;15.97;;;;;;;-0.09;100.00;99189.03;5273602;28;20043;-73
2023/03/08 11:49:42;;;;;;;15.77;14.10;;;;;;;0.00;100.00;99208.41;5274275;28;20024;-73
2023/03/08 11:52:16;;;;;;;15.50;13.73;;;;;;;-0.03;100.00;99209.34;5274927;28;20460;-73
2023/03/08 11:55:06;;;;;;;16.27;13.55;;;;;;;0.08;100.00;99205.50;5273816;28;20487;-73
2023/03/08 11:57:42;;;;;;;14.87;13.23;;;;;;;-0.04;100.00;99187.09;5273025;28;20028;-73
2023/03/08 12:00:36;;;;;;;14.67;13.00;;;;;;;0.02;100.00;99204.00;5274350;28;20059;-73
2023/03/08 12:03:22;;;;;;;13.23;11.77;;;;;;;-0.01;100.00;99199.00;5273667;28;20028;-74
2023/03/08 12:06:02;;;;;;;14.07;12.67;;;;;;;0.01;100.00;99184.31;5273740;28;20029;-73
2023/03/08 12:08:43;;;;;;;13.30;11.90;;;;;;;-0.02;100.00;99185.28;5274117;28;20556;-74
2023/03/08 12:11:34;;;;;;;12.70;11.40;;;;;;;0.05;100.00;99203.91;5255617;28;20068;-74
2023/03/08 12:14:33;;;;;;;12.73;11.10;;;;;;;0.04;100.00;99185.91;5272437;28;20388;-74
2023/03/08 12:17:19;;;;;;;12.67;11.43;;;;;;;0.14;100.00;99196.66;5262268;28;20109;-74
2023/03/08 12:19:50;;;;;;;11.97;10.77;;;;;;;0.03;100.00;99192.81;5273394;28;20055;-73
2023/03/08 12:22:42;;;;;;;12.30;10.30;;;;;;;0.07;100.00;99203.81;5272887;28;20083;-72